createdAt,value
2019-03-17T00:02:12.633Z,10.5
2019-03-17T00:07:18.189Z,11.3
2019-03-17T00:12:23.331Z,12.1
2019-03-17T00:17:29.114Z,9.2
2019-03-17T00:22:34.365Z,9.1
2019-03-17T00:27:39.822Z,8.9
2019-03-17T00:32:45.125Z,11.7
2019-03-17T00:37:50.757Z,8.5
2019-03-17T00:42:55.813Z,9.3
2019-03-17T00:47:56.066Z,8.1
2019-03-17T00:53:01.185Z,8.8
2019-03-17T00:58:06.548Z,8.8
2019-03-17T01:03:11.825Z,9.6
2019-03-17T01:08:17.094Z,9.1
2019-03-17T01:13:22.147Z,8.5
2019-03-17T01:18:26.064Z,9.1
2019-03-17T01:23:31.194Z,10.4
2019-03-17T01:28:36.328Z,8.7
2019-03-17T01:33:41.512Z,7.6
2019-03-17T01:38:46.988Z,9.3
2019-03-17T01:43:52.182Z,9.4
2019-03-17T01:48:57.379Z,9.5
2019-03-17T01:54:02.557Z,9.4
2019-03-17T01:59:07.685Z,9.1
2019-03-17T02:04:12.986Z,10.5
2019-03-17T02:09:18.112Z,8.8
2019-03-17T02:14:23.171Z,9.6
2019-03-17T02:19:28.634Z,9.7
2019-03-17T02:24:33.901Z,11.9
2019-03-17T02:29:39.340Z,11
2019-03-17T02:34:43.001Z,10.6
2019-03-17T02:39:48.417Z,9.9
2019-03-17T02:44:53.706Z,9.4
2019-03-17T02:49:59.107Z,12
2019-03-17T02:55:04.292Z,13.1
2019-03-17T03:00:09.587Z,14.4
2019-03-17T03:05:14.808Z,11.2
2019-03-17T03:10:20.046Z,11.8
2019-03-17T03:15:25.303Z,12.2
2019-03-17T03:20:30.750Z,11.2
2019-03-17T03:25:36.082Z,11.7
2019-03-17T03:30:41.350Z,12.9
2019-03-17T03:35:45.221Z,12.4
2019-03-17T03:40:50.765Z,13.2
2019-03-17T03:45:55.894Z,15
2019-03-17T03:51:01.028Z,12.7
2019-03-17T03:56:06.063Z,12.7
2019-03-17T04:01:11.424Z,12.6
2019-03-17T04:06:26.041Z,14.5
2019-03-17T04:11:22.243Z,13.3
2019-03-17T04:16:27.352Z,14.6
2019-03-17T04:21:32.911Z,15.6
2019-03-17T04:26:38.249Z,16.7
2019-03-17T04:31:43.612Z,14
2019-03-17T04:36:48.716Z,15.9
2019-03-17T04:41:54.562Z,14.9
2019-03-17T04:47:00.236Z,16.1
2019-03-17T04:52:05.363Z,13.4
2019-03-17T04:57:10.502Z,15.6
2019-03-17T05:02:14.109Z,13.6
2019-03-17T05:07:19.230Z,15.8
2019-03-17T05:12:24.613Z,18.5
2019-03-17T05:17:29.726Z,20.3
2019-03-17T05:22:34.861Z,19.1
2019-03-17T05:27:39.936Z,17
2019-03-17T05:32:45.257Z,19.4
2019-03-17T05:37:48.780Z,16.4
2019-03-17T05:42:54.391Z,16
2019-03-17T05:47:59.624Z,16.1
2019-03-17T05:53:05.310Z,15.2
2019-03-17T05:58:10.605Z,16.6
2019-03-17T06:03:15.797Z,17.7
2019-03-17T06:08:20.909Z,14.8
2019-03-17T06:13:26.234Z,13.6
2019-03-17T06:18:31.650Z,17.8
2019-03-17T06:23:36.920Z,16.3
2019-03-17T06:28:42.223Z,17.1
2019-03-17T06:33:46.080Z,18.5
2019-03-17T06:38:51.352Z,17.8
2019-03-17T06:43:57.000Z,17.2
2019-03-17T06:49:05.646Z,14.4
2019-03-17T06:54:11.184Z,14.4
2019-03-17T06:59:17.562Z,15.3
2019-03-17T07:04:23.182Z,15.8
2019-03-17T07:09:28.285Z,12.2
2019-03-17T07:14:33.420Z,11.9
2019-03-17T07:19:38.526Z,14.1
2019-03-17T07:24:42.164Z,12.9
2019-03-17T07:29:49.353Z,14.4
2019-03-17T07:34:55.088Z,12.8
2019-03-17T07:40:03.331Z,10.3
2019-03-17T07:45:08.691Z,17.5
2019-03-17T07:50:13.883Z,13.7
2019-03-17T07:55:19.130Z,15
2019-03-17T08:00:31.570Z,13.6
2019-03-17T08:05:26.862Z,13.4
2019-03-17T08:10:31.918Z,14.6
2019-03-17T08:15:37.299Z,14.1
2019-03-17T08:20:42.537Z,11.4
2019-03-17T08:25:47.749Z,13.3
2019-03-17T08:30:53.649Z,13.9
2019-03-17T08:35:59.418Z,12
2019-03-17T08:41:04.414Z,13.9
2019-03-17T08:46:09.777Z,12.9
2019-03-17T08:51:14.943Z,12.4
2019-03-17T08:56:20.431Z,12.3
2019-03-17T09:01:25.906Z,13.3
2019-03-17T09:06:31.448Z,15.8
2019-03-17T09:11:36.707Z,13
2019-03-17T09:16:42.029Z,14.5
2019-03-17T09:21:47.157Z,13.9
2019-03-17T09:26:52.560Z,12.7
2019-03-17T09:31:57.805Z,14.1
2019-03-17T09:37:03.158Z,11.4
2019-03-17T09:42:10.986Z,13.3
2019-03-17T09:47:16.537Z,13.6
2019-03-17T09:52:21.521Z,12.7
2019-03-17T09:57:26.627Z,13.1
2019-03-17T10:02:32.208Z,14
2019-03-17T10:07:37.284Z,12.9
2019-03-17T10:12:42.502Z,12.1
2019-03-17T10:17:47.881Z,11.3
2019-03-17T10:22:53.190Z,11.6
2019-03-17T10:27:58.392Z,13
2019-03-17T10:33:03.417Z,10.7
2019-03-17T10:38:08.745Z,12.5
2019-03-17T10:43:13.859Z,12.4
2019-03-17T10:48:17.834Z,17
2019-03-17T10:53:22.877Z,11.8
2019-03-17T10:58:28.182Z,12.7
2019-03-17T11:03:33.094Z,11.8
2019-03-17T11:08:38.365Z,10.8
2019-03-17T11:13:43.502Z,10.3
2019-03-17T11:18:48.771Z,11.6
2019-03-17T11:23:53.947Z,9.8
2019-03-17T11:28:59.513Z,8.8
2019-03-17T11:34:05.071Z,12.6
2019-03-17T11:39:10.420Z,12.5
2019-03-17T11:44:15.696Z,10
2019-03-17T11:49:21.148Z,9.4
2019-03-17T11:54:26.546Z,9.9
2019-03-17T11:59:31.864Z,8.5
2019-03-17T12:04:36.924Z,10.2
2019-03-17T12:09:49.866Z,10
2019-03-17T12:14:45.595Z,10.1
2019-03-17T12:19:51.283Z,10.4
2019-03-17T12:24:56.447Z,11.7
2019-03-17T12:30:00.515Z,10.3
2019-03-17T12:35:05.932Z,10.2
2019-03-17T12:40:11.778Z,11.1
2019-03-17T12:45:15.789Z,11.2
2019-03-17T12:50:21.243Z,12
2019-03-17T12:55:26.239Z,8.7
2019-03-17T13:00:31.955Z,8.6
2019-03-17T13:05:37.120Z,10
2019-03-17T13:10:43.083Z,9.2
2019-03-17T13:15:48.191Z,10.9
2019-03-17T13:20:53.431Z,8.3
2019-03-17T13:25:58.528Z,8.2
2019-03-17T13:31:04.530Z,8.5
2019-03-17T13:36:10.028Z,10.5
2019-03-17T13:41:15.676Z,10.9
2019-03-17T13:46:20.748Z,10.3
2019-03-17T13:51:26.639Z,8.9
2019-03-17T13:56:32.024Z,9.9
2019-03-17T14:01:38.507Z,9.8
2019-03-17T14:06:43.422Z,10.4
2019-03-17T14:11:48.644Z,7.7
2019-03-17T14:16:54.012Z,9.7
2019-03-17T14:21:57.840Z,10.4
2019-03-17T14:27:03.269Z,7.1
2019-03-17T14:32:08.982Z,9.1
2019-03-17T14:37:15.185Z,9
2019-03-17T14:42:20.329Z,9.4
2019-03-17T14:47:28.549Z,13.2
2019-03-17T14:52:48.248Z,8.4
2019-03-17T14:57:41.765Z,8.4
2019-03-17T15:02:49.395Z,9
2019-03-17T15:07:54.680Z,7.8
2019-03-17T15:13:00.713Z,9.5
2019-03-17T15:18:03.719Z,8.8
2019-03-17T15:23:09.106Z,8.3
2019-03-17T15:28:14.370Z,8.2
2019-03-17T15:33:19.866Z,8.2
2019-03-17T15:38:25.316Z,8.2
2019-03-17T15:43:30.767Z,9.7
2019-03-17T15:48:35.807Z,7.5
2019-03-17T15:53:41.242Z,9.3
2019-03-17T15:58:46.267Z,9
2019-03-17T16:03:52.096Z,10.3
2019-03-17T16:08:57.464Z,11.2
2019-03-17T16:14:02.923Z,10.1
2019-03-17T16:19:08.327Z,6.1
2019-03-17T16:24:12.081Z,8
2019-03-17T16:29:17.062Z,10.5
2019-03-17T16:34:20.950Z,11.5
2019-03-17T16:39:24.765Z,7.1
2019-03-17T16:44:30.471Z,11.5
2019-03-17T16:49:35.512Z,9.7
2019-03-17T16:54:41.124Z,8.6
2019-03-17T16:59:46.487Z,9.6
2019-03-17T17:04:51.973Z,14.5
2019-03-17T17:09:57.176Z,14.9
2019-03-17T17:14:58.407Z,16.1
2019-03-17T17:20:01.902Z,15.6
2019-03-17T17:25:07.102Z,15.7
2019-03-17T17:30:12.093Z,14.5
2019-03-17T17:35:16.995Z,15.2
2019-03-17T17:40:22.431Z,20.1
2019-03-17T17:45:27.628Z,21.1
2019-03-17T17:50:32.763Z,19.7
2019-03-17T17:55:43.178Z,16
2019-03-17T18:00:40.869Z,13.8
2019-03-17T18:05:45.802Z,16.8
2019-03-17T18:10:50.856Z,15.7
2019-03-17T18:15:59.182Z,14.3
2019-03-17T18:21:04.949Z,13.2
2019-03-17T18:26:10.287Z,18.6
2019-03-17T18:31:15.933Z,15.4
2019-03-17T18:36:21.684Z,14.9
2019-03-17T18:41:27.068Z,17.3
2019-03-17T18:46:32.633Z,21
2019-03-17T18:51:36.270Z,17.1
2019-03-17T18:56:40.431Z,17.2
2019-03-17T19:01:45.580Z,15.9
2019-03-17T19:06:50.745Z,13.3
2019-03-17T19:11:56.449Z,11.3
2019-03-17T19:17:04.859Z,14.4
2019-03-17T19:22:10.799Z,13.4
2019-03-17T19:27:15.967Z,13.1
2019-03-17T19:32:21.006Z,13.1
2019-03-17T19:37:27.117Z,13.6
2019-03-17T19:42:32.436Z,15.2
2019-03-17T19:47:37.875Z,15.1
2019-03-17T19:52:42.997Z,13.4
2019-03-17T19:57:48.378Z,15.6
2019-03-17T20:02:53.785Z,17
2019-03-17T20:07:59.242Z,17.6
2019-03-17T20:13:11.193Z,17.9
2019-03-17T20:18:07.304Z,18.9
2019-03-17T20:23:10.781Z,17.2
2019-03-17T20:28:15.920Z,16.6
2019-03-17T20:33:21.270Z,16.8
2019-03-17T20:38:26.924Z,17
2019-03-17T20:43:35.082Z,21.8
2019-03-17T20:48:40.497Z,19
2019-03-17T20:53:45.576Z,20.1
2019-03-17T20:58:51.137Z,14.4
2019-03-17T21:03:56.520Z,14.7
2019-03-17T21:09:01.947Z,12.4
2019-03-17T21:14:07.243Z,13.3
2019-03-17T21:19:12.693Z,17
2019-03-17T21:24:18.335Z,13.7
2019-03-17T21:29:23.628Z,11.7
2019-03-17T21:34:28.656Z,13.2
2019-03-17T21:39:36.663Z,12.6
2019-03-17T21:44:41.941Z,11.2
2019-03-17T21:49:47.178Z,11.7
2019-03-17T21:54:52.668Z,14.5
2019-03-17T21:59:58.143Z,12.9
2019-03-17T22:05:03.285Z,12.4
2019-03-17T22:10:08.479Z,13.1
2019-03-17T22:15:14.804Z,14.7
2019-03-17T22:20:20.001Z,14
2019-03-17T22:25:25.371Z,12.5
2019-03-17T22:30:25.436Z,15.3
2019-03-17T22:35:30.566Z,14.3
2019-03-17T22:40:34.344Z,13.9
2019-03-17T22:45:39.578Z,12.6
2019-03-17T22:50:44.682Z,15.2
2019-03-17T22:55:49.847Z,17.6
2019-03-17T23:00:55.500Z,14.8
2019-03-17T23:06:00.573Z,11.8
2019-03-17T23:11:05.670Z,12.1
2019-03-17T23:16:10.728Z,12.3
2019-03-17T23:21:15.945Z,11.7
2019-03-17T23:26:21.081Z,11.5
2019-03-17T23:31:24.947Z,14.4
2019-03-17T23:36:30.165Z,12.7
2019-03-17T23:41:35.999Z,12.2
2019-03-17T23:46:42.651Z,11.1
2019-03-17T23:51:48.269Z,12.6
2019-03-17T23:56:53.357Z,15.9
